Time;durP1;ratioP1;P1;durP2;ratioP2;P2;SDS_P1;SDS_P2;PMS_P1;PMS_P2;Temp;Humidity;BMP_temperature;BMP_pressure;BME280_temperature;BME280_humidity;BME280_pressure;Samples;Min_cycle;Max_cycle;Signal;HPM_P1;HPM_P2
2021/06/07 00:00:32;;;;;;;5.27;4.87;;;25.30;52.10;;;;;;4966378;28;20511;-80
2021/06/07 00:02:59;;;;;;;5.70;5.17;;;25.30;52.00;;;;;;4965900;28;20508;-80
2021/06/07 00:05:27;;;;;;;5.70;5.30;;;25.20;52.00;;;;;;4966554;28;20474;-80
2021/06/07 00:07:54;;;;;;;5.13;4.73;;;25.20;52.00;;;;;;4965702;28;20442;-80
2021/06/07 00:10:23;;;;;;;5.77;5.20;;;25.20;52.00;;;;;;4965702;28;20482;-80
2021/06/07 00:12:50;;;;;;;5.77;5.20;;;25.20;52.10;;;;;;4966271;28;20475;-80
2021/06/07 00:15:19;;;;;;;6.27;5.77;;;25.20;52.00;;;;;;4965757;28;20471;-80
2021/06/07 00:17:46;;;;;;;5.23;4.83;;;25.20;52.00;;;;;;4965809;28;20454;-80
2021/06/07 00:20:15;;;;;;;4.97;4.57;;;25.20;52.10;;;;;;4966083;28;20413;-80
2021/06/07 00:22:43;;;;;;;6.33;5.47;;;25.10;51.90;;;;;;4966066;28;20413;-80
2021/06/07 00:25:11;;;;;;;5.10;4.80;;;25.20;52.00;;;;;;4965757;28;20444;-80
2021/06/07 00:27:40;;;;;;;5.40;4.87;;;25.10;51.90;;;;;;4966364;28;20526;-80
2021/06/07 00:30:10;;;;;;;5.47;5.07;;;25.10;51.90;;;;;;4965591;28;20448;-80
2021/06/07 00:32:37;;;;;;;5.03;4.63;;;25.10;51.90;;;;;;4966097;28;20481;-80
2021/06/07 00:35:05;;;;;;;5.40;5.00;;;25.10;51.90;;;;;;4965404;28;20424;-80
2021/06/07 00:37:33;;;;;;;5.40;5.00;;;25.00;51.80;;;;;;4966050;28;20477;-80
2021/06/07 00:40:00;;;;;;;5.70;5.20;;;25.10;51.90;;;;;;4965449;28;20500;-80
2021/06/07 00:42:28;;;;;;;5.73;5.00;;;25.00;51.90;;;;;;4965875;28;20512;-80
2021/06/07 00:44:57;;;;;;;5.23;4.93;;;25.10;51.90;;;;;;4965553;28;20424;-80
2021/06/07 00:47:24;;;;;;;5.90;5.37;;;25.00;51.80;;;;;;4965554;28;20491;-80
2021/06/07 00:49:52;;;;;;;5.73;5.23;;;25.00;51.80;;;;;;4965242;28;20512;-80
2021/06/07 00:52:19;;;;;;;4.90;4.60;;;25.00;51.80;;;;;;4965372;28;20416;-80
2021/06/07 00:54:47;;;;;;;5.10;4.70;;;25.00;51.80;;;;;;4966246;28;20454;-80
2021/06/07 00:57:14;;;;;;;5.57;5.07;;;25.00;51.90;;;;;;4965396;28;20523;-80
2021/06/07 00:59:43;;;;;;;5.40;4.90;;;25.00;51.90;;;;;;4965042;28;20408;-80
2021/06/07 01:02:12;;;;;;;5.43;4.93;;;25.00;51.80;;;;;;4965270;28;20450;-80
2021/06/07 01:04:40;;;;;;;5.60;5.20;;;24.90;51.80;;;;;;4965061;28;20424;-80
2021/06/07 01:07:07;;;;;;;4.63;4.33;;;24.90;51.90;;;;;;4964910;28;20444;-80
2021/06/07 01:09:35;;;;;;;5.00;4.60;;;25.00;52.20;;;;;;4965202;28;20452;-80
2021/06/07 01:12:02;;;;;;;5.67;5.27;;;25.00;51.70;;;;;;4965227;28;20432;-80
2021/06/07 01:14:30;;;;;;;5.43;4.93;;;25.00;51.80;;;;;;4965302;28;20450;-80
2021/06/07 01:16:57;;;;;;;5.43;5.03;;;24.90;51.80;;;;;;4965025;28;20483;-80
2021/06/07 01:19:26;;;;;;;5.50;5.00;;;24.90;51.80;;;;;;4965076;28;20450;-80
2021/06/07 01:22:01;;;;;;;5.27;4.87;;;24.90;51.70;;;;;;4965292;28;20475;-80
2021/06/07 01:24:28;;;;;;;5.77;5.23;;;24.90;51.80;;;;;;4965124;28;20445;-80
2021/06/07 01:26:56;;;;;;;5.70;5.30;;;24.90;51.80;;;;;;4967485;28;20461;-80
2021/06/07 01:29:23;;;;;;;5.20;4.90;;;24.80;51.70;;;;;;4966219;28;20577;-80
2021/06/07 01:31:51;;;;;;;5.00;4.70;;;24.80;51.70;;;;;;4965114;28;20454;-80
2021/06/07 01:34:18;;;;;;;5.40;5.00;;;24.80;51.70;;;;;;4964473;28;20430;-80
2021/06/07 01:36:46;;;;;;;5.50;5.10;;;24.80;51.70;;;;;;4965084;28;20541;-80
2021/06/07 01:39:15;;;;;;;4.97;4.67;;;24.80;51.70;;;;;;4964756;28;20491;-80
2021/06/07 01:41:42;;;;;;;5.43;4.73;;;24.80;51.70;;;;;;4965201;28;20409;-80
2021/06/07 01:44:09;;;;;;;5.80;5.30;;;24.80;51.60;;;;;;4964610;28;20472;-80
2021/06/07 01:46:37;;;;;;;5.47;5.07;;;24.70;51.60;;;;;;4964494;28;20420;-80
2021/06/07 01:49:04;;;;;;;5.90;5.50;;;24.80;51.70;;;;;;4964778;28;20405;-80
2021/06/07 01:51:32;;;;;;;6.10;5.60;;;24.80;51.70;;;;;;4964793;28;20492;-81
2021/06/07 01:53:59;;;;;;;5.47;5.10;;;24.80;51.70;;;;;;4964918;28;20489;-80
2021/06/07 01:56:28;;;;;;;5.80;5.40;;;24.80;51.70;;;;;;4964502;28;20511;-80
2021/06/07 01:58:56;;;;;;;4.60;4.30;;;24.70;51.60;;;;;;4964960;28;20434;-80
2021/06/07 02:01:24;;;;;;;6.70;5.30;;;24.70;51.70;;;;;;4964886;28;20425;-79
2021/06/07 02:03:52;;;;;;;5.17;4.73;;;24.70;51.60;;;;;;4968945;28;20562;-79
2021/06/07 02:06:20;;;;;;;5.03;4.73;;;24.70;51.60;;;;;;4968199;28;20553;-80
2021/06/07 02:08:48;;;;;;;5.50;5.03;;;24.70;51.60;;;;;;4968936;28;20448;-80
2021/06/07 02:11:16;;;;;;;6.10;5.50;;;24.80;51.60;;;;;;4968440;28;20460;-80
2021/06/07 02:13:46;;;;;;;5.10;4.70;;;24.70;51.50;;;;;;4969074;28;20416;-80
2021/06/07 02:16:15;;;;;;;6.20;5.23;;;24.70;51.60;;;;;;4968047;28;20483;-80
2021/06/07 02:18:43;;;;;;;5.17;4.77;;;24.70;51.60;;;;;;4968184;28;20489;-80
2021/06/07 02:21:11;;;;;;;5.00;4.70;;;24.60;51.50;;;;;;4968681;28;20412;-80
2021/06/07 02:23:38;;;;;;;5.50;5.00;;;24.60;51.60;;;;;;4968318;28;20429;-80
2021/06/07 02:26:07;;;;;;;5.30;4.90;;;24.60;51.60;;;;;;4968410;28;20501;-80
2021/06/07 02:28:35;;;;;;;5.30;4.80;;;24.60;51.50;;;;;;4968111;28;20442;-76
2021/06/07 02:31:04;;;;;;;5.43;5.03;;;24.60;51.50;;;;;;4968424;28;20470;-76
2021/06/07 02:33:32;;;;;;;5.30;4.90;;;24.60;51.60;;;;;;4968269;28;20517;-76
2021/06/07 02:35:59;;;;;;;5.47;5.07;;;24.60;51.60;;;;;;4979893;28;20420;-76
2021/06/07 02:38:27;;;;;;;5.17;4.80;;;24.60;51.60;;;;;;4995778;28;20452;-76
2021/06/07 02:40:55;;;;;;;5.23;4.93;;;24.60;51.60;;;;;;4985422;28;20442;-76
2021/06/07 02:43:22;;;;;;;5.33;4.73;;;24.60;51.50;;;;;;4984630;28;20439;-76
2021/06/07 02:45:50;;;;;;;5.40;4.90;;;24.60;51.50;;;;;;4986885;28;20462;-76
2021/06/07 02:48:19;;;;;;;5.27;4.87;;;24.60;51.50;;;;;;4987586;28;20545;-76
2021/06/07 02:50:47;;;;;;;5.43;5.03;;;24.60;51.40;;;;;;4987354;28;20447;-76
2021/06/07 02:53:15;;;;;;;4.83;4.40;;;24.60;51.50;;;;;;4987015;28;20522;-76
2021/06/07 02:55:44;;;;;;;5.27;4.87;;;24.50;51.50;;;;;;4987299;28;20431;-76
2021/06/07 02:58:11;;;;;;;5.03;4.60;;;24.50;51.50;;;;;;4987036;28;20449;-76
2021/06/07 03:00:43;;;;;;;5.20;4.80;;;24.50;51.50;;;;;;4987091;28;20451;-76
2021/06/07 03:03:11;;;;;;;4.70;4.30;;;24.50;51.50;;;;;;4987115;28;20441;-76
2021/06/07 03:05:40;;;;;;;6.10;5.47;;;24.50;51.50;;;;;;4986772;28;20453;-76
2021/06/07 03:08:09;;;;;;;5.00;4.50;;;24.50;51.50;;;;;;4986855;28;20435;-76
2021/06/07 03:10:36;;;;;;;5.33;4.93;;;24.50;51.40;;;;;;4986702;28;20478;-76
2021/06/07 03:13:04;;;;;;;4.93;4.50;;;24.50;51.50;;;;;;4986556;28;20484;-76
2021/06/07 03:15:32;;;;;;;4.70;4.30;;;24.40;51.50;;;;;;4986795;28;20477;-76
2021/06/07 03:18:04;;;;;;;6.10;4.57;;;24.40;51.60;;;;;;4986585;28;20427;-76
2021/06/07 03:20:32;;;;;;;5.47;5.00;;;24.40;51.60;;;;;;4986250;28;20446;-76
2021/06/07 03:23:02;;;;;;;5.07;4.77;;;24.40;51.50;;;;;;4985337;28;20452;-76
2021/06/07 03:25:31;;;;;;;4.90;4.50;;;24.40;51.50;;;;;;4985393;28;20419;-76
2021/06/07 03:27:59;;;;;;;4.87;4.57;;;24.30;51.40;;;;;;4985731;28;20449;-76
2021/06/07 03:30:27;;;;;;;4.73;4.47;;;24.40;51.50;;;;;;4985626;28;20539;-76
2021/06/07 03:32:54;;;;;;;4.90;4.60;;;24.40;51.40;;;;;;4985484;28;20453;-76
2021/06/07 03:35:22;;;;;;;4.97;4.50;;;24.40;51.40;;;;;;4985394;28;20504;-76
2021/06/07 03:37:50;;;;;;;5.47;4.60;;;24.40;51.40;;;;;;4986436;28;20444;-75
2021/06/07 03:40:20;;;;;;;4.37;4.17;;;24.30;51.30;;;;;;4986263;28;20427;-75
2021/06/07 03:42:47;;;;;;;5.53;5.13;;;24.40;51.50;;;;;;4986484;28;20430;-75
2021/06/07 03:45:18;;;;;;;5.20;4.80;;;24.30;51.30;;;;;;4986007;28;20490;-75
2021/06/07 03:47:46;;;;;;;5.10;4.70;;;24.30;51.30;;;;;;4986485;28;20408;-76
2021/06/07 03:50:17;;;;;;;5.10;4.70;;;24.30;51.20;;;;;;4986001;28;20480;-75
2021/06/07 03:52:45;;;;;;;4.13;3.93;;;24.30;51.30;;;;;;4986256;28;20472;-75
2021/06/07 03:55:14;;;;;;;4.47;4.17;;;24.30;51.30;;;;;;4985714;28;20419;-75
2021/06/07 03:57:42;;;;;;;5.20;4.80;;;24.30;51.40;;;;;;4985757;28;20545;-75
2021/06/07 04:00:12;;;;;;;5.03;4.20;;;24.30;51.30;;;;;;4985385;28;20453;-75
2021/06/07 04:02:39;;;;;;;5.37;4.97;;;24.30;51.30;;;;;;4988498;28;20502;-75
2021/06/07 04:05:08;;;;;;;5.33;4.93;;;24.30;51.30;;;;;;4989466;28;20434;-75
2021/06/07 04:07:36;;;;;;;5.23;4.87;;;24.30;51.30;;;;;;4992834;28;20477;-76
2021/06/07 04:10:03;;;;;;;5.23;4.83;;;24.30;51.20;;;;;;4999176;28;20450;-75
2021/06/07 04:12:31;;;;;;;4.93;4.63;;;24.30;51.30;;;;;;5005227;28;20515;-76
2021/06/07 04:15:04;;;;;;;5.63;5.13;;;24.30;51.30;;;;;;5004426;28;20467;-75
2021/06/07 04:17:32;;;;;;;6.83;5.17;;;24.30;51.30;;;;;;5005148;28;20522;-79
2021/06/07 04:20:00;;;;;;;5.27;4.77;;;24.30;51.40;;;;;;5005065;28;20411;-79
2021/06/07 04:22:30;;;;;;;5.40;4.90;;;24.30;51.40;;;;;;4997275;28;20415;-79
2021/06/07 04:24:58;;;;;;;6.00;5.23;;;24.30;51.30;;;;;;4984063;28;20424;-79
2021/06/07 04:27:25;;;;;;;5.63;5.13;;;24.30;51.20;;;;;;4985457;28;20412;-80
2021/06/07 04:29:53;;;;;;;5.10;4.67;;;24.20;51.20;;;;;;4984656;28;20444;-80
2021/06/07 04:32:25;;;;;;;5.50;5.10;;;24.20;51.40;;;;;;4985395;28;20441;-80
2021/06/07 04:34:52;;;;;;;5.90;5.20;;;24.20;51.40;;;;;;4984926;28;20464;-80
2021/06/07 04:37:21;;;;;;;5.37;4.97;;;24.20;51.30;;;;;;4984959;28;20429;-80
2021/06/07 04:39:49;;;;;;;5.87;5.37;;;24.20;51.40;;;;;;4984742;28;20548;-80
2021/06/07 04:42:16;;;;;;;5.23;4.93;;;24.20;51.30;;;;;;4984709;28;20433;-80
2021/06/07 04:44:43;;;;;;;5.57;5.17;;;24.20;51.50;;;;;;4984539;28;20442;-79
2021/06/07 04:47:11;;;;;;;5.07;4.67;;;24.20;51.30;;;;;;4985253;28;20433;-79
2021/06/07 04:49:40;;;;;;;4.80;4.50;;;24.20;51.40;;;;;;4985157;28;20482;-79
2021/06/07 04:52:08;;;;;;;5.10;4.70;;;24.20;51.40;;;;;;4984221;28;20571;-79
2021/06/07 04:54:35;;;;;;;5.70;5.20;;;24.20;51.30;;;;;;4984669;28;20455;-79
2021/06/07 04:57:04;;;;;;;5.47;4.97;;;24.20;51.40;;;;;;4984554;28;20404;-79
2021/06/07 04:59:33;;;;;;;6.10;5.10;;;24.20;52.00;;;;;;4984989;28;20411;-79
2021/06/07 05:02:01;;;;;;;6.17;5.57;;;24.20;51.10;;;;;;4984589;28;20403;-79
2021/06/07 05:04:28;;;;;;;5.20;4.70;;;24.20;51.20;;;;;;4984335;28;20404;-79
2021/06/07 05:06:59;;;;;;;5.50;4.53;;;24.20;51.20;;;;;;4984751;28;20460;-79
2021/06/07 05:09:27;;;;;;;5.37;4.93;;;24.20;51.30;;;;;;4984685;28;20466;-79
2021/06/07 05:11:54;;;;;;;5.43;4.90;;;24.20;51.20;;;;;;4984817;28;20547;-79
2021/06/07 05:14:22;;;;;;;5.30;4.90;;;24.20;51.20;;;;;;4984518;28;20494;-79
2021/06/07 05:16:49;;;;;;;4.80;4.50;;;24.30;51.30;;;;;;4984247;28;20460;-79
2021/06/07 05:19:19;;;;;;;4.90;4.50;;;24.20;51.10;;;;;;4984367;28;20449;-79
2021/06/07 05:21:47;;;;;;;5.60;5.10;;;24.20;51.10;;;;;;4984400;28;20585;-79
2021/06/07 05:24:16;;;;;;;5.03;4.73;;;24.30;51.20;;;;;;4984435;28;20416;-79
2021/06/07 05:26:44;;;;;;;4.90;4.60;;;24.30;51.10;;;;;;4984703;28;20419;-79
2021/06/07 05:29:11;;;;;;;5.23;4.77;;;24.30;51.00;;;;;;4984920;28;20428;-79
2021/06/07 05:31:39;;;;;;;6.23;5.00;;;24.30;50.90;;;;;;4984455;28;20535;-80
2021/06/07 05:34:06;;;;;;;5.17;4.67;;;24.30;51.10;;;;;;4984838;28;20433;-80
2021/06/07 05:36:34;;;;;;;4.70;4.30;;;24.30;51.00;;;;;;4986604;28;20424;-79
2021/06/07 05:39:02;;;;;;;5.07;4.67;;;24.30;50.90;;;;;;4988546;28;20412;-80
2021/06/07 05:41:30;;;;;;;4.80;4.40;;;24.30;50.90;;;;;;4988710;28;20415;-80
2021/06/07 05:43:58;;;;;;;4.87;4.47;;;24.30;50.90;;;;;;4988697;28;20423;-80
2021/06/07 05:46:25;;;;;;;4.57;4.27;;;24.30;50.90;;;;;;4988148;28;20504;-80
2021/06/07 05:48:55;;;;;;;5.23;4.93;;;24.40;50.80;;;;;;4988287;28;20419;-80
2021/06/07 05:51:23;;;;;;;4.70;4.40;;;24.40;50.80;;;;;;4987999;28;20457;-79
2021/06/07 05:53:50;;;;;;;5.10;4.70;;;24.40;50.80;;;;;;4988300;28;20555;-79
2021/06/07 05:56:18;;;;;;;4.80;4.40;;;24.40;50.80;;;;;;4988096;28;20450;-80
2021/06/07 05:58:47;;;;;;;5.30;4.80;;;24.40;50.80;;;;;;4987893;28;20468;-80
2021/06/07 06:01:14;;;;;;;4.67;4.37;;;24.40;50.80;;;;;;4987817;28;20490;-79
2021/06/07 06:03:42;;;;;;;4.83;4.43;;;24.40;50.80;;;;;;4987618;28;20456;-80
2021/06/07 06:06:09;;;;;;;4.73;4.43;;;24.50;50.90;;;;;;4988015;28;20499;-80
2021/06/07 06:08:37;;;;;;;5.47;4.97;;;24.50;50.70;;;;;;4988030;28;20445;-80
2021/06/07 06:11:04;;;;;;;5.23;4.73;;;24.50;50.70;;;;;;4987979;28;20447;-79
2021/06/07 06:13:53;;;;;;;4.73;4.40;;;24.60;50.80;;;;;;4987568;28;20441;-79
2021/06/07 06:16:22;;;;;;;5.20;4.80;;;24.60;50.70;;;;;;4988097;28;20456;-79
2021/06/07 06:18:50;;;;;;;5.20;4.70;;;24.50;50.60;;;;;;4988186;28;20416;-79
2021/06/07 06:21:17;;;;;;;5.00;4.47;;;24.60;50.60;;;;;;4988023;28;20419;-79
2021/06/07 06:23:45;;;;;;;5.47;4.90;;;24.60;50.60;;;;;;4987877;28;20437;-79
2021/06/07 06:26:12;;;;;;;4.93;4.47;;;24.60;50.70;;;;;;4987264;28;20416;-79
2021/06/07 06:28:40;;;;;;;5.40;5.00;;;24.60;50.60;;;;;;4987733;28;20433;-80
2021/06/07 06:31:09;;;;;;;5.20;4.80;;;24.60;50.70;;;;;;4988074;28;20451;-80
2021/06/07 06:33:36;;;;;;;5.47;5.03;;;24.60;50.60;;;;;;4987735;28;20427;-80
2021/06/07 06:36:05;;;;;;;5.30;4.83;;;24.70;50.70;;;;;;4987441;28;20511;-80
2021/06/07 06:38:32;;;;;;;5.83;5.13;;;24.70;50.60;;;;;;4987783;28;20443;-80
2021/06/07 06:41:00;;;;;;;4.27;4.03;;;24.70;50.60;;;;;;4987705;28;20487;-80
2021/06/07 06:43:27;;;;;;;4.97;4.47;;;24.70;50.60;;;;;;4984914;28;20416;-80
2021/06/07 06:45:55;;;;;;;5.17;4.67;;;24.70;50.50;;;;;;4987647;28;20551;-80
2021/06/07 06:48:24;;;;;;;5.20;4.80;;;24.70;50.50;;;;;;4986342;28;20433;-79
2021/06/07 06:50:52;;;;;;;4.90;4.50;;;24.80;50.70;;;;;;4987478;28;20453;-80
2021/06/07 06:53:19;;;;;;;5.17;4.77;;;24.80;50.60;;;;;;4987116;28;20415;-80
2021/06/07 06:55:47;;;;;;;5.10;4.80;;;24.80;50.40;;;;;;4985849;28;20523;-80
2021/06/07 06:58:15;;;;;;;5.13;4.73;;;24.90;50.40;;;;;;4992350;28;20412;-80
2021/06/07 07:00:47;;;;;;;5.00;4.60;;;25.00;50.40;;;;;;4991560;28;20502;-80
2021/06/07 07:03:17;;;;;;;4.60;4.30;;;24.90;50.40;;;;;;4980742;28;20425;-80
2021/06/07 07:05:46;;;;;;;4.13;3.83;;;25.00;50.20;;;;;;4977858;28;20500;-80
2021/06/07 07:08:24;;;;;;;4.60;4.30;;;25.10;50.10;;;;;;4986997;28;20533;-80
2021/06/07 07:10:54;;;;;;;4.23;3.93;;;25.10;50.10;;;;;;4995920;28;20529;-80
2021/06/07 07:13:22;;;;;;;4.73;4.43;;;25.20;50.00;;;;;;4999428;28;20461;-80
2021/06/07 07:15:49;;;;;;;4.90;4.50;;;25.20;50.00;;;;;;4995248;28;20441;-80
2021/06/07 07:18:17;;;;;;;4.67;4.23;;;25.30;49.90;;;;;;4991947;28;20441;-80
2021/06/07 07:20:47;;;;;;;5.20;4.70;;;25.30;49.80;;;;;;5000375;28;20412;-80
2021/06/07 07:23:15;;;;;;;4.40;4.10;;;25.40;49.90;;;;;;4979526;28;20462;-80
2021/06/07 07:25:42;;;;;;;3.73;3.53;;;25.40;49.80;;;;;;4982724;28;20437;-79
2021/06/07 07:28:10;;;;;;;4.43;4.07;;;25.40;49.80;;;;;;4992422;28;20418;-80
2021/06/07 07:30:38;;;;;;;4.67;4.37;;;25.40;49.70;;;;;;4997342;28;20449;-79
2021/06/07 07:33:09;;;;;;;4.70;4.40;;;25.50;49.80;;;;;;4993207;28;20513;-79
2021/06/07 07:35:36;;;;;;;4.83;4.43;;;25.50;49.80;;;;;;4994972;28;20429;-80
2021/06/07 07:38:06;;;;;;;4.33;4.03;;;25.50;49.90;;;;;;4994780;28;20419;-79
2021/06/07 07:40:37;;;;;;;4.37;4.07;;;25.50;49.80;;;;;;4994777;28;20493;-78
2021/06/07 07:43:05;;;;;;;3.90;3.60;;;25.60;49.80;;;;;;4994799;28;20416;-79
2021/06/07 07:45:33;;;;;;;8.30;4.37;;;25.70;49.80;;;;;;4978361;28;20453;-79
2021/06/07 07:48:02;;;;;;;4.73;4.30;;;25.70;49.80;;;;;;4975003;28;20469;-78
2021/06/07 07:50:29;;;;;;;4.63;4.23;;;25.70;49.80;;;;;;4976124;28;20412;-78
2021/06/07 07:53:01;;;;;;;4.37;4.00;;;25.70;49.80;;;;;;4976663;28;20503;-78
2021/06/07 07:55:31;;;;;;;4.03;3.83;;;25.80;49.70;;;;;;4975055;28;20424;-76
2021/06/07 07:58:03;;;;;;;4.97;4.57;;;25.90;49.80;;;;;;4975566;28;20433;-76
2021/06/07 08:00:31;;;;;;;4.40;4.10;;;25.90;49.80;;;;;;4974734;28;20401;-75
2021/06/07 08:02:59;;;;;;;4.20;3.90;;;25.90;49.80;;;;;;4973731;28;20473;-78
2021/06/07 08:05:28;;;;;;;4.27;3.97;;;25.90;49.60;;;;;;4981130;28;20516;-78
2021/06/07 08:07:55;;;;;;;4.07;3.87;;;26.00;49.70;;;;;;4984104;28;20433;-77
2021/06/07 08:10:23;;;;;;;4.10;3.90;;;26.10;49.70;;;;;;4992736;28;20469;-78
2021/06/07 08:12:54;;;;;;;4.00;3.80;;;26.20;49.80;;;;;;4990642;28;20443;-77
2021/06/07 08:15:21;;;;;;;3.90;3.70;;;26.20;49.70;;;;;;4995922;28;20412;-78
2021/06/07 08:17:49;;;;;;;4.53;4.23;;;26.40;49.60;;;;;;4991367;28;20484;-78
2021/06/07 08:20:18;;;;;;;4.20;3.90;;;26.40;49.50;;;;;;4995880;28;20459;-82
2021/06/07 08:22:50;;;;;;;4.67;3.87;;;26.50;49.50;;;;;;4961540;28;20468;-79
2021/06/07 08:25:17;;;;;;;9.50;4.53;;;26.60;50.10;;;;;;4977585;28;20448;-75
2021/06/07 08:27:46;;;;;;;13.30;4.10;;;26.80;49.70;;;;;;4990458;28;20441;-77
2021/06/07 08:30:16;;;;;;;9.80;4.00;;;26.90;49.50;;;;;;4985330;28;20404;-83
2021/06/07 08:32:45;;;;;;;10.70;4.47;;;27.00;49.30;;;;;;4985891;28;20476;-79
2021/06/07 08:35:13;;;;;;;6.73;3.97;;;27.00;48.80;;;;;;4993605;28;20414;-80
2021/06/07 08:37:41;;;;;;;7.50;3.97;;;27.00;49.10;;;;;;5004876;28;20428;-80
2021/06/07 08:40:09;;;;;;;7.30;3.80;;;27.00;48.90;;;;;;5005343;28;20449;-80
2021/06/07 08:42:39;;;;;;;4.63;4.23;;;27.00;48.80;;;;;;5005337;28;20430;-80
2021/06/07 08:45:15;;;;;;;5.47;4.50;;;27.10;48.50;;;;;;5004892;28;20466;-79
2021/06/07 08:47:43;;;;;;;5.37;4.07;;;27.20;48.40;;;;;;5003560;28;20461;-80
2021/06/07 08:50:11;;;;;;;5.80;4.00;;;27.20;48.60;;;;;;5005463;28;20434;-76
2021/06/07 08:52:42;;;;;;;5.70;4.67;;;27.20;48.60;;;;;;5004305;28;20484;-77
2021/06/07 08:55:12;;;;;;;7.70;5.40;;;27.30;48.70;;;;;;5005314;28;20423;-80
2021/06/07 08:57:40;;;;;;;6.70;6.00;;;27.20;48.50;;;;;;5005212;28;20446;-75
2021/06/07 09:00:09;;;;;;;5.70;5.20;;;27.20;48.90;;;;;;5001539;28;20516;-81
2021/06/07 09:02:39;;;;;;;7.00;5.47;;;27.30;48.80;;;;;;4993758;28;20526;-80
2021/06/07 09:05:08;;;;;;;5.03;4.57;;;27.30;48.20;;;;;;4994090;28;20426;-80
2021/06/07 09:07:50;;;;;;;5.30;4.80;;;27.30;48.40;;;;;;4993935;28;20455;-80
2021/06/07 09:10:17;;;;;;;5.17;4.67;;;27.30;48.30;;;;;;4992164;28;20479;-80
2021/06/07 09:12:44;;;;;;;4.63;4.27;;;27.30;48.10;;;;;;4996304;28;20464;-79
2021/06/07 09:15:30;;;;;;;6.33;4.50;;;27.30;48.20;;;;;;4994158;28;20464;-80
2021/06/07 09:17:59;;;;;;;7.93;5.23;;;27.20;48.40;;;;;;4994785;28;20472;-79
2021/06/07 09:20:27;;;;;;;37.30;6.10;;;27.20;48.10;;;;;;4997478;28;20429;-78
2021/06/07 09:22:55;;;;;;;5.40;4.90;;;27.20;48.20;;;;;;4993294;28;20455;-78
2021/06/07 09:25:23;;;;;;;7.43;4.57;;;27.30;48.00;;;;;;4979489;28;20472;-80
2021/06/07 09:28:12;;;;;;;8.87;4.77;;;27.40;48.50;;;;;;4992797;28;20430;-78
2021/06/07 09:30:45;;;;;;;6.03;4.83;;;27.30;48.00;;;;;;4983725;28;20441;-84
2021/06/07 09:33:29;;;;;;;5.60;4.73;;;27.20;48.10;;;;;;4977883;28;20475;-82
2021/06/07 09:36:20;;;;;;;5.77;5.27;;;27.30;48.40;;;;;;4977065;28;20516;-80
2021/06/07 09:39:03;;;;;;;6.13;4.63;;;27.40;47.90;;;;;;4976451;28;20453;-85
2021/06/07 09:41:31;;;;;;;5.47;4.57;;;27.30;47.70;;;;;;4975659;28;20524;-78
2021/06/07 09:44:01;;;;;;;5.10;4.70;;;27.30;47.90;;;;;;4973851;28;20436;-79
2021/06/07 09:46:30;;;;;;;11.70;4.97;;;27.20;48.00;;;;;;4980584;28;20412;-80
2021/06/07 09:49:10;;;;;;;12.53;4.40;;;27.30;48.40;;;;;;4976371;28;20483;-82
2021/06/07 09:51:37;;;;;;;8.43;4.60;;;27.40;48.40;;;;;;4979937;28;20451;-82
2021/06/07 09:54:05;;;;;;;7.53;4.50;;;27.50;48.60;;;;;;4981500;28;20564;-87
2021/06/07 09:56:34;;;;;;;5.23;4.63;;;27.40;48.10;;;;;;4975384;28;20509;-83
2021/06/07 09:59:01;;;;;;;7.80;4.40;;;27.40;48.20;;;;;;4974435;28;20513;-82
2021/06/07 10:01:33;;;;;;;6.83;4.53;;;27.40;48.40;;;;;;4973237;28;20514;-81
2021/06/07 10:04:02;;;;;;;6.30;4.87;;;27.30;48.30;;;;;;4978080;28;20484;-87
2021/06/07 10:06:34;;;;;;;6.97;5.10;;;27.20;48.20;;;;;;4978334;28;20433;-85
2021/06/07 10:09:02;;;;;;;5.70;5.20;;;27.20;48.10;;;;;;4974707;28;20512;-80
2021/06/07 10:11:32;;;;;;;6.57;5.60;;;27.20;48.00;;;;;;4973369;28;20495;-80
2021/06/07 10:14:10;;;;;;;5.90;4.83;;;27.10;48.10;;;;;;4972916;28;20473;-80
2021/06/07 10:16:38;;;;;;;5.50;4.73;;;27.10;48.40;;;;;;4974740;28;20441;-81
2021/06/07 10:19:07;;;;;;;5.57;5.07;;;27.10;48.40;;;;;;4975744;28;20441;-84
2021/06/07 10:21:36;;;;;;;5.17;4.77;;;27.20;48.40;;;;;;4975533;28;20438;-85
2021/06/07 10:24:04;;;;;;;5.43;4.93;;;27.20;48.40;;;;;;4978175;28;20472;-84
2021/06/07 10:26:32;;;;;;;5.83;4.70;;;27.20;48.60;;;;;;4976568;28;20459;-81
2021/06/07 10:28:59;;;;;;;4.80;4.40;;;27.20;48.70;;;;;;4978099;28;20478;-83
2021/06/07 10:31:27;;;;;;;7.13;4.50;;;27.20;48.40;;;;;;4984666;28;20463;-86
2021/06/07 10:33:59;;;;;;;6.70;5.60;;;27.30;48.70;;;;;;4979100;28;20556;-85
2021/06/07 10:36:50;;;;;;;7.23;4.80;;;27.40;48.60;;;;;;4987713;28;20454;-82
2021/06/07 10:39:23;;;;;;;6.80;6.10;;;27.30;48.40;;;;;;4987767;28;20421;-80
2021/06/07 10:42:18;;;;;;;6.60;5.87;;;27.30;48.00;;;;;;4987572;28;20445;-74
2021/06/07 10:44:48;;;;;;;9.97;6.13;;;27.10;47.60;;;;;;4987731;28;20433;-75
2021/06/07 10:47:16;;;;;;;6.73;6.00;;;27.10;47.40;;;;;;4987049;28;20445;-74
2021/06/07 10:49:45;;;;;;;9.20;6.40;;;27.10;47.30;;;;;;4987707;28;20425;-74
2021/06/07 10:52:16;;;;;;;7.90;6.00;;;27.00;47.30;;;;;;4987388;28;20441;-76
2021/06/07 10:54:44;;;;;;;7.67;6.07;;;27.10;47.70;;;;;;4987128;28;20580;-75
2021/06/07 10:57:36;;;;;;;9.13;6.30;;;27.10;47.60;;;;;;4987090;28;20452;-74
2021/06/07 11:00:16;;;;;;;5.47;4.97;;;27.10;47.50;;;;;;4972697;28;20517;-74
2021/06/07 11:02:45;;;;;;;7.27;5.80;;;27.20;47.70;;;;;;4987175;28;20487;-74
2021/06/07 11:05:14;;;;;;;8.80;6.47;;;27.00;47.20;;;;;;4986578;28;20501;-74
2021/06/07 11:07:44;;;;;;;7.80;5.60;;;27.10;47.60;;;;;;4977786;28;20526;-74
2021/06/07 11:10:20;;;;;;;5.50;5.10;;;27.10;47.40;;;;;;4981855;28;20422;-73
2021/06/07 11:12:47;;;;;;;6.13;5.60;;;27.10;47.30;;;;;;4997564;28;20473;-74
2021/06/07 11:15:16;;;;;;;12.03;5.63;;;27.20;47.40;;;;;;4986799;28;20428;-73
2021/06/07 11:17:43;;;;;;;9.97;5.53;;;27.20;47.20;;;;;;4993844;28;20456;-74
2021/06/07 11:20:11;;;;;;;13.07;5.30;;;27.30;47.50;;;;;;4991816;28;20513;-74
2021/06/07 11:23:09;;;;;;;6.53;5.80;;;27.20;47.40;;;;;;4986616;28;20488;-75
2021/06/07 11:25:51;;;;;;;7.53;5.50;;;27.10;47.70;;;;;;4986173;28;20510;-74
2021/06/07 11:28:39;;;;;;;6.63;5.93;;;27.20;47.60;;;;;;4986154;28;20457;-74
2021/06/07 11:31:50;;;;;;;10.10;6.73;;;27.20;47.20;;;;;;4986371;28;20479;-74
2021/06/07 11:34:34;;;;;;;9.17;5.90;;;27.00;47.40;;;;;;4985979;28;20543;-74
2021/06/07 11:37:01;;;;;;;6.00;5.43;;;27.00;47.40;;;;;;4983811;28;20449;-74
2021/06/07 11:39:47;;;;;;;6.53;5.93;;;27.00;47.50;;;;;;4986539;28;20490;-74
2021/06/07 11:42:15;;;;;;;7.07;6.37;;;26.80;47.90;;;;;;4986322;28;20437;-74
2021/06/07 11:44:59;;;;;;;7.37;5.77;;;26.90;48.10;;;;;;4986249;28;20446;-74
2021/06/07 11:47:43;;;;;;;5.63;5.13;;;27.00;47.90;;;;;;4994493;28;20445;-74
2021/06/07 11:50:12;;;;;;;9.53;5.60;;;27.00;47.70;;;;;;4999213;28;20443;-74
2021/06/07 11:52:53;;;;;;;6.90;6.17;;;27.00;47.70;;;;;;4995260;28;20456;-74
2021/06/07 11:55:31;;;;;;;7.07;6.37;;;26.90;48.10;;;;;;4991819;28;20430;-74
2021/06/07 11:58:07;;;;;;;9.73;6.70;;;26.90;47.90;;;;;;4991349;28;20502;-80
2021/06/07 12:00:35;;;;;;;15.07;7.07;;;26.80;48.30;;;;;;4992526;28;20503;-82
2021/06/07 12:03:07;;;;;;;10.63;6.00;;;26.80;48.70;;;;;;4998416;28;20448;-83
2021/06/07 12:05:36;;;;;;;10.57;6.33;;;27.00;48.40;;;;;;4995639;28;20445;-84
2021/06/07 12:08:05;;;;;;;11.67;7.10;;;27.20;48.40;;;;;;4993804;28;20502;-82
2021/06/07 12:10:34;;;;;;;9.67;7.43;;;27.20;48.50;;;;;;5001742;28;20448;-81
2021/06/07 12:13:23;;;;;;;7.20;6.50;;;27.20;48.10;;;;;;5002511;28;20493;-82
2021/06/07 12:15:52;;;;;;;10.50;6.60;;;27.20;47.70;;;;;;4991702;28;20453;-83
2021/06/07 12:18:32;;;;;;;7.73;7.07;;;27.10;48.00;;;;;;4996831;28;20463;-82
2021/06/07 12:21:01;;;;;;;10.10;7.00;;;26.90;47.90;;;;;;4993383;28;20551;-83
2021/06/07 12:23:30;;;;;;;10.83;7.03;;;26.90;48.10;;;;;;4998603;28;20506;-78
2021/06/07 12:28:58;;;;;;;9.90;7.70;;;27.20;47.60;;;;;;5005029;28;20437;-81
2021/06/07 12:31:26;;;;;;;14.40;8.07;;;27.20;47.60;;;;;;5005516;28;20403;-83
2021/06/07 12:33:54;;;;;;;9.50;7.17;;;27.20;47.60;;;;;;4998650;28;20480;-79
2021/06/07 12:36:21;;;;;;;10.60;8.27;;;27.20;47.60;;;;;;4996106;28;20452;-82
2021/06/07 12:38:49;;;;;;;11.97;7.50;;;27.40;47.30;;;;;;4995725;28;20418;-81
2021/06/07 12:41:18;;;;;;;8.27;7.47;;;27.40;47.20;;;;;;4985175;28;20433;-81
2021/06/07 12:43:47;;;;;;;10.10;7.57;;;27.40;47.00;;;;;;4985258;28;20433;-80
2021/06/07 12:46:15;;;;;;;10.70;6.50;;;27.20;47.30;;;;;;4984473;28;20433;-80
2021/06/07 12:48:43;;;;;;;8.90;7.47;;;27.20;47.50;;;;;;4987737;28;20436;-81
2021/06/07 12:51:11;;;;;;;9.13;8.20;;;27.20;47.40;;;;;;4993182;28;20441;-81
2021/06/07 12:53:40;;;;;;;7.83;7.10;;;27.00;47.50;;;;;;4989864;28;20468;-80
2021/06/07 12:56:13;;;;;;;8.40;7.50;;;27.00;47.80;;;;;;4990164;28;20423;-81
2021/06/07 12:58:46;;;;;;;8.90;6.73;;;27.10;47.80;;;;;;4993842;28;20502;-83
2021/06/07 13:01:16;;;;;;;8.00;7.20;;;27.00;48.00;;;;;;4996246;28;20444;-83